Airfield :
LOGIN :

Register | Disclaimer

   EN    FR    IT 

 










Legend :    VFR   Marginal VFR   IFR   Intensive IFR   Very Intensive IFR
Visi :
Ceiling :
>= 8 km
>= 3000ft
5 to 8 km
1000 to 3000 ft
1500m to 5 km
500 to 1000 ft
800 to 1500m
200 to 500 ft
< 800m
< 200 ft
Symbols :   Thunderstorms  Fog  Heavy snow  Heavy precipitations  Wind > 20 kt
SIGMETs :     Misc.  Thunderstorms  Icing  Turbulence  Mountain Waves  Volcanic Ashes






- Airport Elevation : 277 ft
- IATA code : JER


EGJJ - Jersey

CURRENT METAR :
  • 302250Z AUTO 29012KT 9999 NCD 14/12 Q1002 RESHRA

EXPIRED METARs :
  • 302220Z AUTO 28011KT 9999 BKN013/// BKN016/// BKN039/// 14/12 Q1002 RESHRA
  • 302150Z AUTO 26012KT 9999 SCT011/// BKN014/// BKN018/// 14/13 Q1003 REDZ
  • 302120Z AUTO 27009KT 9999 FEW008/// SCT009/// BKN010/// 14/13 Q1003 RERA
  • 302050Z AUTO 28009KT 9999 SCT010/// BKN013/// OVC037/// 13/13 Q1003 RERA
  • 302020Z AUTO 26011KT 9000 FEW004/// SCT008/// BKN012/// 13/13 Q1003 RERA
  • 301950Z 27012G31KT 180V290 4000 -RA BKN004 13/12 Q1004

TAF AMD TAF EGJJ
Valid from the 30 at 20:00 until the 01 at 03:00 UTC


302007Z 3020/0103 19017KT 9999 SCT012 BKN036
TEMPO 3020/3021 4000 RA BKN008TCU
BECMG 3020/3021 27015KT
ATIS : +44 1534 498 073



MET'MAP, your aeronautical weather chart ! - Copyright ORBIFLY December 2007 - Disclaimer

ORBIFLY MET'MAP TEAM :

Programming & Development : Alexandra Zaïnal
Concept & original design : Baudouin d'Aumeries
Assistance for programming : Marc-Olivier Méhu
Technical & hardware support : Manuel Goepfert

Contact : metmap@orbifly.com




SOURCES & CREDITS :

   NOAA